sensor_id;sensor_type;location;lat;lon;timestamp;P1;durP1;ratioP1;P2;durP2;ratioP2
27313;SDS011;14800;48.174;9.798;2023-04-03T00:00:39;7.30;;;4.65;;
27313;SDS011;14800;48.174;9.798;2023-04-03T00:03:05;5.90;;;5.07;;
27313;SDS011;14800;48.174;9.798;2023-04-03T00:05:30;6.18;;;4.90;;
27313;SDS011;14800;48.174;9.798;2023-04-03T00:07:56;6.15;;;5.47;;
27313;SDS011;14800;48.174;9.798;2023-04-03T00:10:22;6.75;;;5.30;;
27313;SDS011;14800;48.174;9.798;2023-04-03T00:12:47;5.47;;;4.78;;
27313;SDS011;14800;48.174;9.798;2023-04-03T00:15:13;7.78;;;5.60;;
27313;SDS011;14800;48.174;9.798;2023-04-03T00:17:39;6.90;;;5.10;;
27313;SDS011;14800;48.174;9.798;2023-04-03T00:20:05;5.93;;;5.32;;
27313;SDS011;14800;48.174;9.798;2023-04-03T00:22:31;6.10;;;5.28;;
27313;SDS011;14800;48.174;9.798;2023-04-03T00:24:56;8.38;;;5.20;;
27313;SDS011;14800;48.174;9.798;2023-04-03T00:27:22;6.18;;;5.57;;
27313;SDS011;14800;48.174;9.798;2023-04-03T00:29:48;7.03;;;5.63;;
27313;SDS011;14800;48.174;9.798;2023-04-03T00:32:13;6.32;;;5.60;;
27313;SDS011;14800;48.174;9.798;2023-04-03T00:34:39;5.88;;;5.28;;
27313;SDS011;14800;48.174;9.798;2023-04-03T00:37:04;6.13;;;5.53;;
27313;SDS011;14800;48.174;9.798;2023-04-03T00:39:31;6.50;;;5.78;;
27313;SDS011;14800;48.174;9.798;2023-04-03T00:41:56;6.30;;;5.70;;
27313;SDS011;14800;48.174;9.798;2023-04-03T00:47:11;7.30;;;5.72;;
27313;SDS011;14800;48.174;9.798;2023-04-03T00:49:40;6.78;;;5.55;;
27313;SDS011;14800;48.174;9.798;2023-04-03T00:52:08;6.13;;;5.53;;
27313;SDS011;14800;48.174;9.798;2023-04-03T00:54:41;7.53;;;5.57;;
27313;SDS011;14800;48.174;9.798;2023-04-03T00:57:08;6.20;;;5.60;;
27313;SDS011;14800;48.174;9.798;2023-04-03T00:59:38;6.78;;;5.80;;
27313;SDS011;14800;48.174;9.798;2023-04-03T01:02:09;7.95;;;5.90;;
27313;SDS011;14800;48.174;9.798;2023-04-03T01:04:39;6.70;;;5.82;;
27313;SDS011;14800;48.174;9.798;2023-04-03T01:07:08;6.50;;;5.57;;
27313;SDS011;14800;48.174;9.798;2023-04-03T01:09:47;6.28;;;5.68;;
27313;SDS011;14800;48.174;9.798;2023-04-03T01:15:01;6.00;;;5.40;;
27313;SDS011;14800;48.174;9.798;2023-04-03T01:17:36;5.93;;;5.20;;
27313;SDS011;14800;48.174;9.798;2023-04-03T01:25:34;7.55;;;5.32;;
27313;SDS011;14800;48.174;9.798;2023-04-03T01:28:02;6.55;;;5.35;;
27313;SDS011;14800;48.174;9.798;2023-04-03T01:30:51;5.78;;;5.18;;
27313;SDS011;14800;48.174;9.798;2023-04-03T01:33:33;6.68;;;5.13;;
27313;SDS011;14800;48.174;9.798;2023-04-03T01:36:00;5.47;;;4.97;;
27313;SDS011;14800;48.174;9.798;2023-04-03T01:38:26;6.20;;;5.10;;
27313;SDS011;14800;48.174;9.798;2023-04-03T01:40:51;6.20;;;5.40;;
27313;SDS011;14800;48.174;9.798;2023-04-03T01:43:17;5.72;;;5.18;;
27313;SDS011;14800;48.174;9.798;2023-04-03T01:45:42;6.22;;;5.15;;
27313;SDS011;14800;48.174;9.798;2023-04-03T01:48:08;6.43;;;5.15;;
27313;SDS011;14800;48.174;9.798;2023-04-03T01:50:34;5.93;;;5.10;;
27313;SDS011;14800;48.174;9.798;2023-04-03T01:52:59;6.35;;;5.30;;
27313;SDS011;14800;48.174;9.798;2023-04-03T01:55:25;6.35;;;4.97;;
27313;SDS011;14800;48.174;9.798;2023-04-03T01:57:50;5.35;;;4.82;;
27313;SDS011;14800;48.174;9.798;2023-04-03T02:00:16;5.55;;;5.00;;
27313;SDS011;14800;48.174;9.798;2023-04-03T02:02:42;5.80;;;5.18;;
27313;SDS011;14800;48.174;9.798;2023-04-03T02:05:07;6.65;;;5.20;;
27313;SDS011;14800;48.174;9.798;2023-04-03T02:07:33;6.28;;;4.82;;
27313;SDS011;14800;48.174;9.798;2023-04-03T02:09:59;5.43;;;4.65;;
27313;SDS011;14800;48.174;9.798;2023-04-03T02:12:24;5.28;;;4.70;;
27313;SDS011;14800;48.174;9.798;2023-04-03T02:14:50;5.10;;;4.60;;
27313;SDS011;14800;48.174;9.798;2023-04-03T02:17:16;5.07;;;4.55;;
27313;SDS011;14800;48.174;9.798;2023-04-03T02:19:41;5.82;;;4.47;;
27313;SDS011;14800;48.174;9.798;2023-04-03T02:22:07;5.32;;;4.68;;
27313;SDS011;14800;48.174;9.798;2023-04-03T02:24:32;5.18;;;4.68;;
27313;SDS011;14800;48.174;9.798;2023-04-03T02:26:58;5.85;;;5.25;;
27313;SDS011;14800;48.174;9.798;2023-04-03T02:29:24;6.47;;;5.18;;
27313;SDS011;14800;48.174;9.798;2023-04-03T02:31:50;5.70;;;4.88;;
27313;SDS011;14800;48.174;9.798;2023-04-03T02:34:15;7.07;;;5.00;;
27313;SDS011;14800;48.174;9.798;2023-04-03T02:36:42;6.57;;;4.80;;
27313;SDS011;14800;48.174;9.798;2023-04-03T02:39:07;5.75;;;4.32;;
27313;SDS011;14800;48.174;9.798;2023-04-03T02:41:33;5.35;;;4.60;;
27313;SDS011;14800;48.174;9.798;2023-04-03T02:44:00;5.38;;;4.60;;
27313;SDS011;14800;48.174;9.798;2023-04-03T02:46:26;5.07;;;4.47;;
27313;SDS011;14800;48.174;9.798;2023-04-03T02:48:52;4.68;;;3.65;;
27313;SDS011;14800;48.174;9.798;2023-04-03T02:51:17;4.72;;;3.97;;
27313;SDS011;14800;48.174;9.798;2023-04-03T02:53:43;4.55;;;4.05;;
27313;SDS011;14800;48.174;9.798;2023-04-03T02:56:08;4.93;;;3.78;;
27313;SDS011;14800;48.174;9.798;2023-04-03T02:58:34;3.88;;;3.58;;
27313;SDS011;14800;48.174;9.798;2023-04-03T03:01:00;3.97;;;3.58;;
27313;SDS011;14800;48.174;9.798;2023-04-03T03:03:26;3.58;;;3.28;;
27313;SDS011;14800;48.174;9.798;2023-04-03T03:06:00;4.03;;;3.63;;
27313;SDS011;14800;48.174;9.798;2023-04-03T03:08:30;5.05;;;3.80;;
27313;SDS011;14800;48.174;9.798;2023-04-03T03:10:56;5.20;;;3.58;;
27313;SDS011;14800;48.174;9.798;2023-04-03T03:13:21;4.00;;;3.60;;
27313;SDS011;14800;48.174;9.798;2023-04-03T03:15:47;4.15;;;3.67;;
27313;SDS011;14800;48.174;9.798;2023-04-03T03:18:12;4.78;;;3.88;;
27313;SDS011;14800;48.174;9.798;2023-04-03T03:20:38;4.88;;;3.60;;
27313;SDS011;14800;48.174;9.798;2023-04-03T03:23:03;4.22;;;3.80;;
27313;SDS011;14800;48.174;9.798;2023-04-03T03:25:29;5.43;;;4.13;;
27313;SDS011;14800;48.174;9.798;2023-04-03T03:27:54;4.55;;;4.15;;
27313;SDS011;14800;48.174;9.798;2023-04-03T03:30:20;5.10;;;4.45;;
27313;SDS011;14800;48.174;9.798;2023-04-03T03:32:46;4.40;;;4.00;;
27313;SDS011;14800;48.174;9.798;2023-04-03T03:35:11;4.70;;;4.30;;
27313;SDS011;14800;48.174;9.798;2023-04-03T03:37:37;4.95;;;4.47;;
27313;SDS011;14800;48.174;9.798;2023-04-03T03:40:02;5.95;;;4.60;;
27313;SDS011;14800;48.174;9.798;2023-04-03T03:42:28;4.90;;;4.40;;
27313;SDS011;14800;48.174;9.798;2023-04-03T03:44:53;7.50;;;4.60;;
27313;SDS011;14800;48.174;9.798;2023-04-03T03:47:19;5.38;;;4.70;;
27313;SDS011;14800;48.174;9.798;2023-04-03T03:49:45;5.10;;;4.55;;
27313;SDS011;14800;48.174;9.798;2023-04-03T03:52:11;6.18;;;4.82;;
27313;SDS011;14800;48.174;9.798;2023-04-03T03:54:36;4.63;;;4.22;;
27313;SDS011;14800;48.174;9.798;2023-04-03T03:57:02;5.05;;;4.38;;
27313;SDS011;14800;48.174;9.798;2023-04-03T03:59:29;4.88;;;4.32;;
27313;SDS011;14800;48.174;9.798;2023-04-03T04:01:55;4.85;;;4.35;;
27313;SDS011;14800;48.174;9.798;2023-04-03T04:04:21;6.80;;;4.88;;
27313;SDS011;14800;48.174;9.798;2023-04-03T04:06:46;9.75;;;6.40;;
27313;SDS011;14800;48.174;9.798;2023-04-03T04:09:12;8.55;;;5.32;;
27313;SDS011;14800;48.174;9.798;2023-04-03T04:11:38;5.93;;;4.65;;
27313;SDS011;14800;48.174;9.798;2023-04-03T04:14:05;4.80;;;4.03;;
27313;SDS011;14800;48.174;9.798;2023-04-03T04:16:31;4.50;;;4.10;;
27313;SDS011;14800;48.174;9.798;2023-04-03T04:18:56;4.20;;;3.83;;
27313;SDS011;14800;48.174;9.798;2023-04-03T04:21:22;4.78;;;3.95;;
27313;SDS011;14800;48.174;9.798;2023-04-03T04:23:47;4.45;;;4.03;;
27313;SDS011;14800;48.174;9.798;2023-04-03T04:26:13;5.97;;;4.38;;
27313;SDS011;14800;48.174;9.798;2023-04-03T04:28:38;5.45;;;4.88;;
27313;SDS011;14800;48.174;9.798;2023-04-03T04:31:04;5.50;;;4.57;;
27313;SDS011;14800;48.174;9.798;2023-04-03T04:33:30;5.43;;;4.63;;
27313;SDS011;14800;48.174;9.798;2023-04-03T04:35:55;6.07;;;4.50;;
27313;SDS011;14800;48.174;9.798;2023-04-03T04:38:21;6.15;;;4.60;;
27313;SDS011;14800;48.174;9.798;2023-04-03T04:40:47;6.45;;;4.40;;
27313;SDS011;14800;48.174;9.798;2023-04-03T04:43:14;4.20;;;3.58;;
27313;SDS011;14800;48.174;9.798;2023-04-03T04:45:40;4.38;;;3.50;;
27313;SDS011;14800;48.174;9.798;2023-04-03T04:48:06;4.00;;;3.60;;
27313;SDS011;14800;48.174;9.798;2023-04-03T04:50:32;4.13;;;3.72;;
27313;SDS011;14800;48.174;9.798;2023-04-03T04:52:58;5.88;;;3.47;;
27313;SDS011;14800;48.174;9.798;2023-04-03T04:55:24;4.55;;;3.20;;
27313;SDS011;14800;48.174;9.798;2023-04-03T04:57:49;3.72;;;3.20;;
27313;SDS011;14800;48.174;9.798;2023-04-03T05:00:15;4.53;;;2.85;;
27313;SDS011;14800;48.174;9.798;2023-04-03T05:02:41;3.70;;;2.72;;
27313;SDS011;14800;48.174;9.798;2023-04-03T05:05:06;3.55;;;2.88;;
27313;SDS011;14800;48.174;9.798;2023-04-03T05:07:33;4.57;;;2.75;;
27313;SDS011;14800;48.174;9.798;2023-04-03T05:09:58;2.95;;;2.65;;
27313;SDS011;14800;48.174;9.798;2023-04-03T05:12:24;2.90;;;2.60;;
27313;SDS011;14800;48.174;9.798;2023-04-03T05:14:49;2.80;;;2.50;;
27313;SDS011;14800;48.174;9.798;2023-04-03T05:17:15;2.97;;;2.67;;
27313;SDS011;14800;48.174;9.798;2023-04-03T05:19:40;2.65;;;2.45;;
27313;SDS011;14800;48.174;9.798;2023-04-03T05:22:06;4.22;;;2.80;;
27313;SDS011;14800;48.174;9.798;2023-04-03T05:24:31;3.50;;;2.63;;
27313;SDS011;14800;48.174;9.798;2023-04-03T05:26:57;3.35;;;2.50;;
27313;SDS011;14800;48.174;9.798;2023-04-03T05:29:23;3.28;;;2.65;;
27313;SDS011;14800;48.174;9.798;2023-04-03T05:31:49;3.42;;;2.38;;
27313;SDS011;14800;48.174;9.798;2023-04-03T05:34:15;3.38;;;2.50;;
27313;SDS011;14800;48.174;9.798;2023-04-03T05:36:41;3.30;;;2.58;;
27313;SDS011;14800;48.174;9.798;2023-04-03T05:39:07;3.10;;;2.45;;
27313;SDS011;14800;48.174;9.798;2023-04-03T05:41:33;2.63;;;2.42;;
27313;SDS011;14800;48.174;9.798;2023-04-03T05:43:59;4.55;;;2.80;;
27313;SDS011;14800;48.174;9.798;2023-04-03T05:46:25;3.35;;;2.55;;
27313;SDS011;14800;48.174;9.798;2023-04-03T05:48:51;2.97;;;2.67;;
27313;SDS011;14800;48.174;9.798;2023-04-03T05:51:17;3.67;;;2.60;;
27313;SDS011;14800;48.174;9.798;2023-04-03T05:53:46;5.68;;;3.10;;
27313;SDS011;14800;48.174;9.798;2023-04-03T05:56:13;3.10;;;2.90;;
27313;SDS011;14800;48.174;9.798;2023-04-03T05:58:38;2.95;;;2.65;;
27313;SDS011;14800;48.174;9.798;2023-04-03T06:01:04;3.60;;;2.63;;
27313;SDS011;14800;48.174;9.798;2023-04-03T06:03:30;3.35;;;2.80;;
27313;SDS011;14800;48.174;9.798;2023-04-03T06:05:56;4.32;;;2.80;;
27313;SDS011;14800;48.174;9.798;2023-04-03T06:08:22;2.90;;;2.70;;
27313;SDS011;14800;48.174;9.798;2023-04-03T06:10:48;3.20;;;2.65;;
27313;SDS011;14800;48.174;9.798;2023-04-03T06:13:15;2.90;;;2.65;;
27313;SDS011;14800;48.174;9.798;2023-04-03T06:15:41;3.90;;;2.90;;
27313;SDS011;14800;48.174;9.798;2023-04-03T06:18:06;3.92;;;3.00;;
27313;SDS011;14800;48.174;9.798;2023-04-03T06:20:32;4.20;;;2.70;;
27313;SDS011;14800;48.174;9.798;2023-04-03T06:22:57;3.28;;;2.95;;
27313;SDS011;14800;48.174;9.798;2023-04-03T06:25:23;4.88;;;2.85;;
27313;SDS011;14800;48.174;9.798;2023-04-03T06:27:49;2.85;;;2.58;;
27313;SDS011;14800;48.174;9.798;2023-04-03T06:30:14;7.10;;;2.88;;
27313;SDS011;14800;48.174;9.798;2023-04-03T06:32:40;3.20;;;2.70;;
27313;SDS011;14800;48.174;9.798;2023-04-03T06:35:06;3.33;;;3.00;;
27313;SDS011;14800;48.174;9.798;2023-04-03T06:37:32;4.40;;;2.85;;
27313;SDS011;14800;48.174;9.798;2023-04-03T06:39:58;3.75;;;2.45;;
27313;SDS011;14800;48.174;9.798;2023-04-03T06:42:25;3.20;;;2.67;;
27313;SDS011;14800;48.174;9.798;2023-04-03T06:44:51;3.28;;;2.65;;
27313;SDS011;14800;48.174;9.798;2023-04-03T06:47:17;3.25;;;2.88;;
27313;SDS011;14800;48.174;9.798;2023-04-03T06:49:43;3.95;;;3.00;;
27313;SDS011;14800;48.174;9.798;2023-04-03T06:52:09;4.75;;;2.85;;
27313;SDS011;14800;48.174;9.798;2023-04-03T06:54:34;4.28;;;2.63;;
27313;SDS011;14800;48.174;9.798;2023-04-03T06:57:00;3.90;;;3.17;;
27313;SDS011;14800;48.174;9.798;2023-04-03T06:59:27;5.97;;;3.15;;
27313;SDS011;14800;48.174;9.798;2023-04-03T07:01:52;4.55;;;3.20;;
27313;SDS011;14800;48.174;9.798;2023-04-03T07:04:18;4.85;;;2.97;;
27313;SDS011;14800;48.174;9.798;2023-04-03T07:06:45;4.40;;;2.47;;
27313;SDS011;14800;48.174;9.798;2023-04-03T07:09:11;3.85;;;2.97;;
27313;SDS011;14800;48.174;9.798;2023-04-03T07:11:38;4.32;;;2.95;;
27313;SDS011;14800;48.174;9.798;2023-04-03T07:14:04;4.05;;;3.10;;
27313;SDS011;14800;48.174;9.798;2023-04-03T07:16:31;6.32;;;3.03;;
27313;SDS011;14800;48.174;9.798;2023-04-03T07:18:56;3.30;;;2.80;;
27313;SDS011;14800;48.174;9.798;2023-04-03T07:21:22;2.70;;;2.47;;
27313;SDS011;14800;48.174;9.798;2023-04-03T07:23:48;4.35;;;3.05;;
27313;SDS011;14800;48.174;9.798;2023-04-03T07:26:14;5.70;;;2.95;;
27313;SDS011;14800;48.174;9.798;2023-04-03T07:28:39;3.20;;;2.90;;
27313;SDS011;14800;48.174;9.798;2023-04-03T07:31:07;4.03;;;2.72;;
27313;SDS011;14800;48.174;9.798;2023-04-03T07:33:37;3.78;;;3.05;;
27313;SDS011;14800;48.174;9.798;2023-04-03T07:36:03;4.35;;;3.40;;
27313;SDS011;14800;48.174;9.798;2023-04-03T07:38:30;3.58;;;3.25;;
27313;SDS011;14800;48.174;9.798;2023-04-03T07:40:55;4.63;;;3.10;;
27313;SDS011;14800;48.174;9.798;2023-04-03T07:43:22;3.50;;;3.05;;
27313;SDS011;14800;48.174;9.798;2023-04-03T07:45:49;4.70;;;3.10;;
27313;SDS011;14800;48.174;9.798;2023-04-03T07:48:16;4.40;;;3.65;;
27313;SDS011;14800;48.174;9.798;2023-04-03T07:50:43;5.07;;;3.42;;
27313;SDS011;14800;48.174;9.798;2023-04-03T07:53:09;4.57;;;3.63;;
27313;SDS011;14800;48.174;9.798;2023-04-03T07:55:35;3.53;;;3.22;;
27313;SDS011;14800;48.174;9.798;2023-04-03T07:58:07;7.95;;;3.55;;
27313;SDS011;14800;48.174;9.798;2023-04-03T08:00:37;4.30;;;3.50;;
27313;SDS011;14800;48.174;9.798;2023-04-03T08:03:03;6.10;;;3.70;;
27313;SDS011;14800;48.174;9.798;2023-04-03T08:05:29;5.03;;;3.40;;
27313;SDS011;14800;48.174;9.798;2023-04-03T08:07:55;5.75;;;3.95;;
27313;SDS011;14800;48.174;9.798;2023-04-03T08:10:21;4.05;;;3.65;;
27313;SDS011;14800;48.174;9.798;2023-04-03T08:12:47;4.10;;;3.47;;
27313;SDS011;14800;48.174;9.798;2023-04-03T08:15:12;4.65;;;3.65;;
27313;SDS011;14800;48.174;9.798;2023-04-03T08:17:38;4.38;;;3.28;;
27313;SDS011;14800;48.174;9.798;2023-04-03T08:20:05;4.30;;;3.78;;
27313;SDS011;14800;48.174;9.798;2023-04-03T08:22:32;4.82;;;3.53;;
27313;SDS011;14800;48.174;9.798;2023-04-03T08:24:58;4.60;;;3.60;;
27313;SDS011;14800;48.174;9.798;2023-04-03T08:27:23;4.75;;;3.45;;
27313;SDS011;14800;48.174;9.798;2023-04-03T08:29:49;5.70;;;3.60;;
27313;SDS011;14800;48.174;9.798;2023-04-03T08:32:15;4.40;;;4.00;;
27313;SDS011;14800;48.174;9.798;2023-04-03T08:34:40;4.38;;;3.45;;
27313;SDS011;14800;48.174;9.798;2023-04-03T08:37:06;3.92;;;3.50;;
27313;SDS011;14800;48.174;9.798;2023-04-03T08:39:32;4.72;;;3.80;;
27313;SDS011;14800;48.174;9.798;2023-04-03T08:41:57;5.55;;;3.40;;
27313;SDS011;14800;48.174;9.798;2023-04-03T08:44:44;7.05;;;3.78;;
27313;SDS011;14800;48.174;9.798;2023-04-03T08:47:38;3.83;;;3.17;;
27313;SDS011;14800;48.174;9.798;2023-04-03T08:50:12;5.68;;;3.75;;
27313;SDS011;14800;48.174;9.798;2023-04-03T08:52:42;6.28;;;4.20;;
27313;SDS011;14800;48.174;9.798;2023-04-03T08:57:46;4.70;;;3.55;;
27313;SDS011;14800;48.174;9.798;2023-04-03T09:00:17;4.55;;;3.67;;
27313;SDS011;14800;48.174;9.798;2023-04-03T09:02:52;3.72;;;3.28;;
27313;SDS011;14800;48.174;9.798;2023-04-03T09:05:20;6.05;;;3.55;;
27313;SDS011;14800;48.174;9.798;2023-04-03T09:07:58;5.55;;;3.30;;
27313;SDS011;14800;48.174;9.798;2023-04-03T09:10:29;5.47;;;3.53;;
27313;SDS011;14800;48.174;9.798;2023-04-03T09:15:37;3.65;;;3.05;;
27313;SDS011;14800;48.174;9.798;2023-04-03T09:23:34;3.42;;;2.88;;
27313;SDS011;14800;48.174;9.798;2023-04-03T09:26:13;3.25;;;2.78;;
27313;SDS011;14800;48.174;9.798;2023-04-03T09:28:42;3.55;;;3.13;;
27313;SDS011;14800;48.174;9.798;2023-04-03T09:31:31;4.47;;;2.90;;
27313;SDS011;14800;48.174;9.798;2023-04-03T09:34:02;3.72;;;2.88;;
27313;SDS011;14800;48.174;9.798;2023-04-03T09:36:48;4.93;;;2.78;;
27313;SDS011;14800;48.174;9.798;2023-04-03T09:39:17;2.90;;;2.60;;
27313;SDS011;14800;48.174;9.798;2023-04-03T09:41:58;3.75;;;2.60;;
27313;SDS011;14800;48.174;9.798;2023-04-03T09:46:58;2.80;;;2.47;;
27313;SDS011;14800;48.174;9.798;2023-04-03T09:49:25;3.33;;;2.80;;
27313;SDS011;14800;48.174;9.798;2023-04-03T09:51:51;3.90;;;3.05;;
27313;SDS011;14800;48.174;9.798;2023-04-03T09:54:30;2.97;;;2.78;;
27313;SDS011;14800;48.174;9.798;2023-04-03T09:57:00;2.80;;;2.60;;
27313;SDS011;14800;48.174;9.798;2023-04-03T09:59:32;7.15;;;2.70;;
27313;SDS011;14800;48.174;9.798;2023-04-03T10:01:59;2.80;;;2.50;;
27313;SDS011;14800;48.174;9.798;2023-04-03T10:07:25;2.75;;;2.53;;
27313;SDS011;14800;48.174;9.798;2023-04-03T10:09:59;3.15;;;2.83;;
27313;SDS011;14800;48.174;9.798;2023-04-03T10:12:44;2.97;;;2.70;;
27313;SDS011;14800;48.174;9.798;2023-04-03T10:15:14;3.53;;;2.70;;
27313;SDS011;14800;48.174;9.798;2023-04-03T10:18:02;3.10;;;2.80;;
27313;SDS011;14800;48.174;9.798;2023-04-03T10:20:49;2.80;;;2.53;;
27313;SDS011;14800;48.174;9.798;2023-04-03T10:29:02;2.50;;;2.30;;
27313;SDS011;14800;48.174;9.798;2023-04-03T10:31:44;2.40;;;2.20;;
27313;SDS011;14800;48.174;9.798;2023-04-03T10:34:35;3.20;;;2.55;;
27313;SDS011;14800;48.174;9.798;2023-04-03T10:42:39;3.30;;;2.55;;
27313;SDS011;14800;48.174;9.798;2023-04-03T10:45:24;3.38;;;2.30;;
27313;SDS011;14800;48.174;9.798;2023-04-03T10:50:43;2.85;;;2.50;;
27313;SDS011;14800;48.174;9.798;2023-04-03T10:59:26;2.70;;;2.50;;
27313;SDS011;14800;48.174;9.798;2023-04-03T11:01:59;2.92;;;2.60;;
27313;SDS011;14800;48.174;9.798;2023-04-03T11:04:47;4.93;;;2.70;;
27313;SDS011;14800;48.174;9.798;2023-04-03T11:07:18;3.80;;;2.80;;
27313;SDS011;14800;48.174;9.798;2023-04-03T11:09:50;3.28;;;2.97;;
27313;SDS011;14800;48.174;9.798;2023-04-03T11:12:47;2.83;;;2.63;;
27313;SDS011;14800;48.174;9.798;2023-04-03T11:15:18;3.17;;;2.70;;
27313;SDS011;14800;48.174;9.798;2023-04-03T11:17:55;2.80;;;2.60;;
27313;SDS011;14800;48.174;9.798;2023-04-03T11:20:28;4.65;;;3.20;;
27313;SDS011;14800;48.174;9.798;2023-04-03T11:23:03;3.42;;;2.75;;
27313;SDS011;14800;48.174;9.798;2023-04-03T11:25:42;4.47;;;2.78;;
27313;SDS011;14800;48.174;9.798;2023-04-03T11:28:12;3.13;;;2.35;;
27313;SDS011;14800;48.174;9.798;2023-04-03T11:33:49;3.47;;;2.72;;
27313;SDS011;14800;48.174;9.798;2023-04-03T11:36:27;3.25;;;2.70;;
27313;SDS011;14800;48.174;9.798;2023-04-03T11:39:32;2.78;;;2.38;;
27313;SDS011;14800;48.174;9.798;2023-04-03T11:45:23;3.58;;;2.72;;
27313;SDS011;14800;48.174;9.798;2023-04-03T11:48:02;4.30;;;2.90;;
27313;SDS011;14800;48.174;9.798;2023-04-03T11:50:46;3.25;;;2.38;;
27313;SDS011;14800;48.174;9.798;2023-04-03T11:55:57;2.40;;;2.20;;
27313;SDS011;14800;48.174;9.798;2023-04-03T11:58:33;4.30;;;2.63;;
27313;SDS011;14800;48.174;9.798;2023-04-03T12:01:01;2.33;;;2.08;;
27313;SDS011;14800;48.174;9.798;2023-04-03T12:13:38;3.33;;;3.03;;
27313;SDS011;14800;48.174;9.798;2023-04-03T12:16:05;8.13;;;5.90;;
27313;SDS011;14800;48.174;9.798;2023-04-03T12:18:42;4.88;;;2.60;;
27313;SDS011;14800;48.174;9.798;2023-04-03T12:21:10;3.00;;;2.38;;
27313;SDS011;14800;48.174;9.798;2023-04-03T12:23:56;3.65;;;2.47;;
27313;SDS011;14800;48.174;9.798;2023-04-03T12:39:59;2.78;;;2.30;;
27313;SDS011;14800;48.174;9.798;2023-04-03T12:45:24;4.20;;;2.63;;
27313;SDS011;14800;48.174;9.798;2023-04-03T12:47:52;3.10;;;2.40;;
27313;SDS011;14800;48.174;9.798;2023-04-03T12:50:23;2.53;;;2.33;;
27313;SDS011;14800;48.174;9.798;2023-04-03T12:53:11;3.53;;;2.60;;
27313;SDS011;14800;48.174;9.798;2023-04-03T12:55:42;4.47;;;2.40;;
27313;SDS011;14800;48.174;9.798;2023-04-03T12:58:20;2.75;;;2.55;;
27313;SDS011;14800;48.174;9.798;2023-04-03T13:01:09;3.92;;;2.47;;
27313;SDS011;14800;48.174;9.798;2023-04-03T13:03:37;2.80;;;2.50;;
27313;SDS011;14800;48.174;9.798;2023-04-03T13:06:05;3.20;;;2.67;;
27313;SDS011;14800;48.174;9.798;2023-04-03T13:08:31;2.95;;;2.40;;
27313;SDS011;14800;48.174;9.798;2023-04-03T13:13:28;3.65;;;2.20;;
27313;SDS011;14800;48.174;9.798;2023-04-03T13:15:54;2.10;;;1.90;;
27313;SDS011;14800;48.174;9.798;2023-04-03T13:18:30;2.78;;;2.33;;
27313;SDS011;14800;48.174;9.798;2023-04-03T13:20:59;3.28;;;2.50;;
27313;SDS011;14800;48.174;9.798;2023-04-03T13:23:52;3.38;;;2.30;;
27313;SDS011;14800;48.174;9.798;2023-04-03T13:26:22;2.15;;;1.95;;
27313;SDS011;14800;48.174;9.798;2023-04-03T13:28:51;2.28;;;2.08;;
27313;SDS011;14800;48.174;9.798;2023-04-03T13:31:52;5.55;;;1.92;;
27313;SDS011;14800;48.174;9.798;2023-04-03T13:36:38;2.78;;;2.30;;
27313;SDS011;14800;48.174;9.798;2023-04-03T13:44:22;4.38;;;2.63;;
27313;SDS011;14800;48.174;9.798;2023-04-03T13:51:51;2.22;;;2.03;;
27313;SDS011;14800;48.174;9.798;2023-04-03T13:54:19;4.00;;;2.85;;
27313;SDS011;14800;48.174;9.798;2023-04-03T13:56:52;3.55;;;2.60;;
27313;SDS011;14800;48.174;9.798;2023-04-03T13:59:21;2.30;;;2.10;;
27313;SDS011;14800;48.174;9.798;2023-04-03T14:04:28;3.30;;;2.10;;
27313;SDS011;14800;48.174;9.798;2023-04-03T14:06:56;2.53;;;2.20;;
27313;SDS011;14800;48.174;9.798;2023-04-03T14:09:23;3.28;;;2.55;;
27313;SDS011;14800;48.174;9.798;2023-04-03T14:11:53;2.75;;;2.17;;
27313;SDS011;14800;48.174;9.798;2023-04-03T14:14:24;3.28;;;2.13;;
27313;SDS011;14800;48.174;9.798;2023-04-03T14:16:54;3.53;;;2.45;;
27313;SDS011;14800;48.174;9.798;2023-04-03T14:19:28;2.67;;;2.47;;
27313;SDS011;14800;48.174;9.798;2023-04-03T14:21:55;2.08;;;1.88;;
27313;SDS011;14800;48.174;9.798;2023-04-03T14:24:22;2.22;;;2.03;;
27313;SDS011;14800;48.174;9.798;2023-04-03T14:26:49;3.08;;;2.50;;
27313;SDS011;14800;48.174;9.798;2023-04-03T14:29:16;5.10;;;2.50;;
27313;SDS011;14800;48.174;9.798;2023-04-03T14:31:43;3.20;;;2.40;;
27313;SDS011;14800;48.174;9.798;2023-04-03T14:34:11;3.17;;;2.20;;
27313;SDS011;14800;48.174;9.798;2023-04-03T14:36:38;7.03;;;2.50;;
27313;SDS011;14800;48.174;9.798;2023-04-03T14:39:05;2.40;;;2.20;;
27313;SDS011;14800;48.174;9.798;2023-04-03T14:41:32;2.70;;;1.95;;
27313;SDS011;14800;48.174;9.798;2023-04-03T14:43:57;2.53;;;2.00;;
27313;SDS011;14800;48.174;9.798;2023-04-03T14:46:33;2.38;;;1.80;;
27313;SDS011;14800;48.174;9.798;2023-04-03T14:49:02;2.40;;;2.10;;
27313;SDS011;14800;48.174;9.798;2023-04-03T14:51:32;2.67;;;2.17;;
27313;SDS011;14800;48.174;9.798;2023-04-03T14:53:58;2.20;;;2.00;;
27313;SDS011;14800;48.174;9.798;2023-04-03T14:56:27;2.42;;;2.20;;
27313;SDS011;14800;48.174;9.798;2023-04-03T14:58:58;2.33;;;2.13;;
27313;SDS011;14800;48.174;9.798;2023-04-03T15:01:25;3.60;;;2.17;;
27313;SDS011;14800;48.174;9.798;2023-04-03T15:03:52;2.80;;;2.10;;
27313;SDS011;14800;48.174;9.798;2023-04-03T15:06:18;2.33;;;2.13;;
27313;SDS011;14800;48.174;9.798;2023-04-03T15:08:44;3.63;;;2.60;;
27313;SDS011;14800;48.174;9.798;2023-04-03T15:11:11;3.50;;;2.22;;
27313;SDS011;14800;48.174;9.798;2023-04-03T15:13:37;3.45;;;2.67;;
27313;SDS011;14800;48.174;9.798;2023-04-03T15:16:04;2.70;;;2.15;;
27313;SDS011;14800;48.174;9.798;2023-04-03T15:18:56;4.00;;;2.10;;
27313;SDS011;14800;48.174;9.798;2023-04-03T15:21:21;3.90;;;2.17;;
27313;SDS011;14800;48.174;9.798;2023-04-03T15:23:47;3.33;;;2.33;;
27313;SDS011;14800;48.174;9.798;2023-04-03T15:26:13;3.45;;;2.20;;
27313;SDS011;14800;48.174;9.798;2023-04-03T15:28:39;2.63;;;2.00;;
27313;SDS011;14800;48.174;9.798;2023-04-03T15:31:07;1.92;;;1.75;;
27313;SDS011;14800;48.174;9.798;2023-04-03T15:33:34;3.55;;;1.80;;
27313;SDS011;14800;48.174;9.798;2023-04-03T15:36:00;3.15;;;2.08;;
27313;SDS011;14800;48.174;9.798;2023-04-03T15:38:26;2.13;;;1.92;;
27313;SDS011;14800;48.174;9.798;2023-04-03T15:40:53;2.00;;;1.90;;
27313;SDS011;14800;48.174;9.798;2023-04-03T15:43:19;3.85;;;2.00;;
27313;SDS011;14800;48.174;9.798;2023-04-03T15:45:44;3.75;;;1.75;;
27313;SDS011;14800;48.174;9.798;2023-04-03T15:48:10;3.30;;;2.30;;
27313;SDS011;14800;48.174;9.798;2023-04-03T15:50:36;3.38;;;1.90;;
27313;SDS011;14800;48.174;9.798;2023-04-03T15:53:02;3.28;;;2.53;;
27313;SDS011;14800;48.174;9.798;2023-04-03T15:55:29;5.25;;;2.88;;
27313;SDS011;14800;48.174;9.798;2023-04-03T15:57:56;4.47;;;3.13;;
27313;SDS011;14800;48.174;9.798;2023-04-03T16:00:23;3.15;;;2.10;;
27313;SDS011;14800;48.174;9.798;2023-04-03T16:03:11;3.55;;;2.67;;
27313;SDS011;14800;48.174;9.798;2023-04-03T16:05:37;3.78;;;2.95;;
27313;SDS011;14800;48.174;9.798;2023-04-03T16:08:04;4.35;;;2.75;;
27313;SDS011;14800;48.174;9.798;2023-04-03T16:10:32;5.45;;;2.55;;
27313;SDS011;14800;48.174;9.798;2023-04-03T16:12:58;7.30;;;4.07;;
27313;SDS011;14800;48.174;9.798;2023-04-03T16:15:24;2.65;;;2.38;;
27313;SDS011;14800;48.174;9.798;2023-04-03T16:17:51;2.47;;;2.28;;
27313;SDS011;14800;48.174;9.798;2023-04-03T16:20:18;2.20;;;1.90;;
27313;SDS011;14800;48.174;9.798;2023-04-03T16:22:44;3.40;;;2.03;;
27313;SDS011;14800;48.174;9.798;2023-04-03T16:25:10;3.05;;;2.00;;
27313;SDS011;14800;48.174;9.798;2023-04-03T16:27:36;2.17;;;1.77;;
27313;SDS011;14800;48.174;9.798;2023-04-03T16:30:03;2.25;;;1.80;;
27313;SDS011;14800;48.174;9.798;2023-04-03T16:32:29;8.75;;;4.88;;
27313;SDS011;14800;48.174;9.798;2023-04-03T16:34:56;14.80;;;6.82;;
27313;SDS011;14800;48.174;9.798;2023-04-03T16:37:22;15.82;;;9.40;;